Brownsville, TX (78520)

1:12 PM CDT on March 24, 2017 (GMT -0500)
West Brownsville | | Change Station
Active Advisory: Wind Advisory

Elev 35 ft 25.92 °N, 97.52 °W | Updated 5 minutes ago

Overcast
Overcast
82.4 °F
Feels Like 87 °F
N
4.0
Wind Variable Wind from SW
Gusts 23.0 mph

Today
High -- | Low -- °F
--% Chance of Precip.
Yesterday
High -- | Low -- °F
Precip. -- in
Pressure 29.96 in
Visibility 10.0 miles
Clouds Scattered Clouds 3100 ft
Mostly Cloudy 4000 ft
Overcast 4700 ft
Heat Index 87 °F
Dew Point 70 °F
Humidity 67%
Rainfall 0.00 in
Snow Depth Not available.
7:29 AM 7:43 PM
Waning Crescent, 14% visible
METAR KBRO 241753Z 17023G32KT 10SM SCT031 BKN040 OVC047 28/20 A2996 RMK AO2 PK WND 16036/1657 SLP143 T02780200 10283 20233 51005
Pressure 29.96 in
Visibility 10.0 miles
Clouds Scattered Clouds 3100 ft
Mostly Cloudy 4000 ft
Overcast 4700 ft
Heat Index 87 °F
Dew Point 70 °F
Humidity 67%
Rainfall 0.00 in
Snow Depth Not available.
7:29 AM 7:43 PM
Waning Crescent, 14% visible
METAR KBRO 241753Z 17023G32KT 10SM SCT031 BKN040 OVC047 28/20 A2996 RMK AO2 PK WND 16036/1657 SLP143 T02780200 10283 20233 51005

Get Your Daily Forecast Email!

Thanks for signing up!

Be on the lookout for a verification email in your inbox.

You'll start receiving severe weather alerts in your inbox..

×

10-Day Weather Forecast

Almanac

Astronomy

Mar. 24, 2017 Rise Set
Actual Time
Civil Twilight
Nautical Twilight
Astronomical Twilight
Moon
Length of Visible Light
Length of Day
Tomorrow will be .
, % of the Moon is Illuminated

Today's Extremes

State Highs State Lows

Community

WunderPhotos

Upload Photos

1,962,540 photos uploaded!

WunderBlog® & News

Nearby

Air Quality

  Air Quality AQ Index Pollutant
Not available.

Snow Depth

Station Depth Elevation

Earthquake Activity

City Distance Mag. Time & Date
Minimum magnitude displayed is 2.5.

Earthquake Activity

City Distance Mag. Time & Date
Minimum magnitude displayed is 2.5.

Coastal Water Temperatures

Place Temperature

Stations

Nearby Weather Stations

Station Location Temp. Windchill Dew Point Humidity Wind Precip. Elev Updated Type
                   

Watches & Warnings

Wind Advisory
Issued: 10:27 AM CDT Mar. 24, 2017 – National Weather Service

... Wind Advisory in effect until 2 PM CDT this afternoon...

The National Weather Service in Brownsville has issued a Wind
Advisory, which is in effect until 2 PM CDT this afternoon.

* Timing... now through midafternoon

* winds... south winds 25 to 30 miles per hour with gusts of 40
miles per hour.

* Impacts... move light and moderate weight items, such as patio
furniture, empty trash cans, and portable basketball posts, indoors.

Precautionary/preparedness actions...

A Wind Advisory means that winds of 30 to 39 mph are expected.
Winds this strong can make driving difficult... especial